sensor_id;sensor_type;location;lat;lon;timestamp;P1;durP1;ratioP1;P2;durP2;ratioP2
10269;SDS011;5180;50.832;5.390;2022-09-09T00:00:32;19.63;;;18.60;;
10269;SDS011;5180;50.832;5.390;2022-09-09T00:03:22;19.83;;;18.73;;
10269;SDS011;5180;50.832;5.390;2022-09-09T00:08:37;14.32;;;13.43;;
10269;SDS011;5180;50.832;5.390;2022-09-09T00:11:16;14.40;;;13.55;;
10269;SDS011;5180;50.832;5.390;2022-09-09T00:13:46;12.82;;;12.10;;
10269;SDS011;5180;50.832;5.390;2022-09-09T00:22:28;12.95;;;12.07;;
10269;SDS011;5180;50.832;5.390;2022-09-09T00:24:41;14.02;;;13.10;;
10269;SDS011;5180;50.832;5.390;2022-09-09T00:27:16;16.73;;;15.82;;
10269;SDS011;5180;50.832;5.390;2022-09-09T00:32:34;16.58;;;15.68;;
10269;SDS011;5180;50.832;5.390;2022-09-09T00:35:13;17.92;;;16.83;;
10269;SDS011;5180;50.832;5.390;2022-09-09T00:37:40;11.98;;;11.35;;
10269;SDS011;5180;50.832;5.390;2022-09-09T00:40:18;9.25;;;8.75;;
10269;SDS011;5180;50.832;5.390;2022-09-09T00:43:04;9.52;;;9.00;;
10269;SDS011;5180;50.832;5.390;2022-09-09T00:48:18;11.75;;;11.13;;
10269;SDS011;5180;50.832;5.390;2022-09-09T00:50:53;10.90;;;10.10;;
10269;SDS011;5180;50.832;5.390;2022-09-09T00:56:27;9.65;;;9.07;;
10269;SDS011;5180;50.832;5.390;2022-09-09T00:59:02;11.00;;;10.38;;
10269;SDS011;5180;50.832;5.390;2022-09-09T01:01:40;11.43;;;10.73;;
10269;SDS011;5180;50.832;5.390;2022-09-09T01:04:08;16.55;;;15.75;;
10269;SDS011;5180;50.832;5.390;2022-09-09T01:06:41;15.43;;;14.55;;
10269;SDS011;5180;50.832;5.390;2022-09-09T01:12:14;15.23;;;14.30;;
10269;SDS011;5180;50.832;5.390;2022-09-09T01:14:43;13.25;;;12.45;;
10269;SDS011;5180;50.832;5.390;2022-09-09T01:17:33;15.55;;;14.65;;
10269;SDS011;5180;50.832;5.390;2022-09-09T01:25:56;21.45;;;20.27;;
10269;SDS011;5180;50.832;5.390;2022-09-09T01:28:25;20.30;;;19.27;;
10269;SDS011;5180;50.832;5.390;2022-09-09T01:30:53;24.02;;;22.58;;
10269;SDS011;5180;50.832;5.390;2022-09-09T01:33:20;24.75;;;23.05;;
10269;SDS011;5180;50.832;5.390;2022-09-09T01:35:48;26.77;;;25.17;;
10269;SDS011;5180;50.832;5.390;2022-09-09T01:38:21;26.38;;;24.95;;
10269;SDS011;5180;50.832;5.390;2022-09-09T01:40:48;27.85;;;26.17;;
10269;SDS011;5180;50.832;5.390;2022-09-09T01:43:17;24.98;;;23.48;;
10269;SDS011;5180;50.832;5.390;2022-09-09T01:45:44;19.70;;;18.70;;
10269;SDS011;5180;50.832;5.390;2022-09-09T01:48:13;16.27;;;15.35;;
10269;SDS011;5180;50.832;5.390;2022-09-09T01:50:38;24.02;;;22.58;;
10269;SDS011;5180;50.832;5.390;2022-09-09T01:53:04;21.70;;;20.20;;
10269;SDS011;5180;50.832;5.390;2022-09-09T01:55:36;21.35;;;20.05;;
10269;SDS011;5180;50.832;5.390;2022-09-09T02:01:15;19.48;;;18.17;;
10269;SDS011;5180;50.832;5.390;2022-09-09T02:03:54;17.95;;;16.80;;
10269;SDS011;5180;50.832;5.390;2022-09-09T02:08:56;14.80;;;14.00;;
10269;SDS011;5180;50.832;5.390;2022-09-09T02:11:23;13.85;;;13.05;;
10269;SDS011;5180;50.832;5.390;2022-09-09T02:13:52;21.15;;;19.88;;
10269;SDS011;5180;50.832;5.390;2022-09-09T02:19:21;19.15;;;18.05;;
10269;SDS011;5180;50.832;5.390;2022-09-09T02:21:55;17.42;;;16.42;;
10269;SDS011;5180;50.832;5.390;2022-09-09T02:24:22;16.80;;;15.77;;
10269;SDS011;5180;50.832;5.390;2022-09-09T02:26:49;16.98;;;15.98;;
10269;SDS011;5180;50.832;5.390;2022-09-09T02:29:21;12.60;;;11.90;;
10269;SDS011;5180;50.832;5.390;2022-09-09T02:31:50;16.70;;;15.77;;
10269;SDS011;5180;50.832;5.390;2022-09-09T02:34:20;16.55;;;15.38;;
10269;SDS011;5180;50.832;5.390;2022-09-09T02:36:48;16.73;;;15.57;;
10269;SDS011;5180;50.832;5.390;2022-09-09T02:39:18;13.48;;;12.77;;
10269;SDS011;5180;50.832;5.390;2022-09-09T02:41:44;15.13;;;14.10;;
10269;SDS011;5180;50.832;5.390;2022-09-09T02:44:13;15.90;;;14.70;;
10269;SDS011;5180;50.832;5.390;2022-09-09T02:52:14;16.05;;;15.15;;
10269;SDS011;5180;50.832;5.390;2022-09-09T02:54:43;17.75;;;16.23;;
10269;SDS011;5180;50.832;5.390;2022-09-09T02:59:41;20.75;;;19.45;;
10269;SDS011;5180;50.832;5.390;2022-09-09T03:02:09;17.60;;;16.50;;
10269;SDS011;5180;50.832;5.390;2022-09-09T03:04:36;18.42;;;17.33;;
10269;SDS011;5180;50.832;5.390;2022-09-09T03:07:06;17.65;;;16.25;;
10269;SDS011;5180;50.832;5.390;2022-09-09T03:09:32;23.30;;;21.63;;
10269;SDS011;5180;50.832;5.390;2022-09-09T03:11:58;17.58;;;16.25;;
10269;SDS011;5180;50.832;5.390;2022-09-09T03:14:24;19.08;;;17.75;;
10269;SDS011;5180;50.832;5.390;2022-09-09T03:16:53;18.13;;;17.13;;
10269;SDS011;5180;50.832;5.390;2022-09-09T03:19:19;24.10;;;22.55;;
10269;SDS011;5180;50.832;5.390;2022-09-09T03:21:45;22.95;;;21.65;;
10269;SDS011;5180;50.832;5.390;2022-09-09T03:24:12;17.77;;;16.67;;
10269;SDS011;5180;50.832;5.390;2022-09-09T03:26:39;21.92;;;20.58;;
10269;SDS011;5180;50.832;5.390;2022-09-09T03:29:05;10.60;;;9.95;;
10269;SDS011;5180;50.832;5.390;2022-09-09T03:31:32;11.27;;;10.57;;
10269;SDS011;5180;50.832;5.390;2022-09-09T03:33:58;13.60;;;12.80;;
10269;SDS011;5180;50.832;5.390;2022-09-09T03:36:27;10.63;;;10.02;;
10269;SDS011;5180;50.832;5.390;2022-09-09T03:38:54;16.73;;;15.85;;
10269;SDS011;5180;50.832;5.390;2022-09-09T03:41:23;24.38;;;22.95;;
10269;SDS011;5180;50.832;5.390;2022-09-09T03:43:50;34.22;;;32.13;;
10269;SDS011;5180;50.832;5.390;2022-09-09T03:46:16;27.63;;;26.05;;
10269;SDS011;5180;50.832;5.390;2022-09-09T03:48:42;26.98;;;25.17;;
10269;SDS011;5180;50.832;5.390;2022-09-09T03:51:08;22.73;;;21.33;;
10269;SDS011;5180;50.832;5.390;2022-09-09T03:53:34;24.88;;;23.25;;
10269;SDS011;5180;50.832;5.390;2022-09-09T03:56:01;30.17;;;28.23;;
10269;SDS011;5180;50.832;5.390;2022-09-09T03:58:28;30.92;;;28.75;;
10269;SDS011;5180;50.832;5.390;2022-09-09T04:00:54;20.10;;;18.70;;
10269;SDS011;5180;50.832;5.390;2022-09-09T04:03:20;31.40;;;29.38;;
10269;SDS011;5180;50.832;5.390;2022-09-09T04:05:48;17.00;;;15.88;;
10269;SDS011;5180;50.832;5.390;2022-09-09T04:08:14;11.88;;;11.05;;
10269;SDS011;5180;50.832;5.390;2022-09-09T04:10:39;16.48;;;14.18;;
10269;SDS011;5180;50.832;5.390;2022-09-09T04:13:06;13.55;;;12.75;;
10269;SDS011;5180;50.832;5.390;2022-09-09T04:15:32;17.38;;;16.20;;
10269;SDS011;5180;50.832;5.390;2022-09-09T04:17:59;15.68;;;14.57;;
10269;SDS011;5180;50.832;5.390;2022-09-09T04:20:25;16.90;;;15.80;;
10269;SDS011;5180;50.832;5.390;2022-09-09T04:22:51;16.92;;;15.93;;
10269;SDS011;5180;50.832;5.390;2022-09-09T04:25:16;16.92;;;15.82;;
10269;SDS011;5180;50.832;5.390;2022-09-09T04:27:42;16.48;;;14.73;;
10269;SDS011;5180;50.832;5.390;2022-09-09T04:30:08;18.67;;;17.35;;
10269;SDS011;5180;50.832;5.390;2022-09-09T04:32:35;18.88;;;17.83;;
10269;SDS011;5180;50.832;5.390;2022-09-09T04:35:01;13.50;;;12.70;;
10269;SDS011;5180;50.832;5.390;2022-09-09T04:37:28;19.45;;;18.38;;
10269;SDS011;5180;50.832;5.390;2022-09-09T04:39:53;15.77;;;14.73;;
10269;SDS011;5180;50.832;5.390;2022-09-09T04:42:19;13.35;;;12.25;;
10269;SDS011;5180;50.832;5.390;2022-09-09T04:44:45;16.13;;;14.60;;
10269;SDS011;5180;50.832;5.390;2022-09-09T04:47:11;14.80;;;13.82;;
10269;SDS011;5180;50.832;5.390;2022-09-09T04:49:36;13.82;;;13.05;;
10269;SDS011;5180;50.832;5.390;2022-09-09T04:52:03;12.80;;;11.90;;
10269;SDS011;5180;50.832;5.390;2022-09-09T04:54:29;10.20;;;9.50;;
10269;SDS011;5180;50.832;5.390;2022-09-09T04:56:55;11.23;;;10.43;;
10269;SDS011;5180;50.832;5.390;2022-09-09T04:59:21;16.45;;;15.07;;
10269;SDS011;5180;50.832;5.390;2022-09-09T05:01:47;13.15;;;11.98;;
10269;SDS011;5180;50.832;5.390;2022-09-09T05:04:14;13.93;;;12.82;;
10269;SDS011;5180;50.832;5.390;2022-09-09T05:06:41;18.35;;;16.95;;
10269;SDS011;5180;50.832;5.390;2022-09-09T05:09:07;19.75;;;18.42;;
10269;SDS011;5180;50.832;5.390;2022-09-09T05:11:33;16.80;;;15.75;;
10269;SDS011;5180;50.832;5.390;2022-09-09T05:14:03;15.40;;;14.40;;
10269;SDS011;5180;50.832;5.390;2022-09-09T05:16:29;15.95;;;14.85;;
10269;SDS011;5180;50.832;5.390;2022-09-09T05:18:55;15.27;;;14.38;;
10269;SDS011;5180;50.832;5.390;2022-09-09T05:21:22;14.52;;;13.35;;
10269;SDS011;5180;50.832;5.390;2022-09-09T05:23:50;17.17;;;16.10;;
10269;SDS011;5180;50.832;5.390;2022-09-09T05:26:19;15.13;;;13.98;;
10269;SDS011;5180;50.832;5.390;2022-09-09T05:28:46;14.18;;;13.07;;
10269;SDS011;5180;50.832;5.390;2022-09-09T05:31:12;18.52;;;17.27;;
10269;SDS011;5180;50.832;5.390;2022-09-09T05:33:41;13.55;;;12.57;;
10269;SDS011;5180;50.832;5.390;2022-09-09T05:36:11;13.20;;;12.10;;
10269;SDS011;5180;50.832;5.390;2022-09-09T05:38:38;14.85;;;13.65;;
10269;SDS011;5180;50.832;5.390;2022-09-09T05:41:05;19.48;;;18.15;;
10269;SDS011;5180;50.832;5.390;2022-09-09T05:43:32;20.40;;;18.98;;
10269;SDS011;5180;50.832;5.390;2022-09-09T05:48:40;17.63;;;16.05;;
10269;SDS011;5180;50.832;5.390;2022-09-09T05:51:08;17.38;;;16.00;;
10269;SDS011;5180;50.832;5.390;2022-09-09T05:53:37;10.75;;;9.88;;
10269;SDS011;5180;50.832;5.390;2022-09-09T05:56:07;13.82;;;13.02;;
10269;SDS011;5180;50.832;5.390;2022-09-09T05:58:41;13.15;;;12.25;;
10269;SDS011;5180;50.832;5.390;2022-09-09T06:04:00;14.82;;;13.55;;
10269;SDS011;5180;50.832;5.390;2022-09-09T06:06:27;26.17;;;23.73;;
10269;SDS011;5180;50.832;5.390;2022-09-09T06:09:01;19.27;;;18.00;;
10269;SDS011;5180;50.832;5.390;2022-09-09T06:11:32;30.35;;;28.23;;
10269;SDS011;5180;50.832;5.390;2022-09-09T06:13:58;31.90;;;30.05;;
10269;SDS011;5180;50.832;5.390;2022-09-09T06:16:25;39.20;;;36.90;;
10269;SDS011;5180;50.832;5.390;2022-09-09T06:18:52;40.47;;;38.05;;
10269;SDS011;5180;50.832;5.390;2022-09-09T06:21:26;20.20;;;18.58;;
10269;SDS011;5180;50.832;5.390;2022-09-09T06:23:55;15.07;;;14.18;;
10269;SDS011;5180;50.832;5.390;2022-09-09T06:26:24;15.73;;;14.50;;
10269;SDS011;5180;50.832;5.390;2022-09-09T06:28:52;12.73;;;11.73;;
10269;SDS011;5180;50.832;5.390;2022-09-09T06:31:20;10.43;;;9.70;;
10269;SDS011;5180;50.832;5.390;2022-09-09T06:33:47;11.80;;;8.88;;
10269;SDS011;5180;50.832;5.390;2022-09-09T06:36:15;10.68;;;9.98;;
10269;SDS011;5180;50.832;5.390;2022-09-09T06:38:46;9.60;;;8.90;;
10269;SDS011;5180;50.832;5.390;2022-09-09T06:41:13;11.68;;;11.00;;
10269;SDS011;5180;50.832;5.390;2022-09-09T06:43:40;14.20;;;13.38;;
10269;SDS011;5180;50.832;5.390;2022-09-09T06:48:33;18.35;;;17.17;;
10269;SDS011;5180;50.832;5.390;2022-09-09T06:53:31;7.00;;;6.50;;
10269;SDS011;5180;50.832;5.390;2022-09-09T06:55:59;8.82;;;6.50;;
10269;SDS011;5180;50.832;5.390;2022-09-09T06:58:27;9.90;;;9.00;;
10269;SDS011;5180;50.832;5.390;2022-09-09T07:01:01;9.50;;;8.75;;
10269;SDS011;5180;50.832;5.390;2022-09-09T07:03:30;8.63;;;7.93;;
10269;SDS011;5180;50.832;5.390;2022-09-09T07:05:56;9.25;;;8.55;;
10269;SDS011;5180;50.832;5.390;2022-09-09T07:08:22;11.00;;;10.13;;
10269;SDS011;5180;50.832;5.390;2022-09-09T07:10:49;8.15;;;7.47;;
10269;SDS011;5180;50.832;5.390;2022-09-09T07:13:19;8.70;;;5.68;;
10269;SDS011;5180;50.832;5.390;2022-09-09T07:15:50;4.82;;;3.25;;
10269;SDS011;5180;50.832;5.390;2022-09-09T07:18:16;5.97;;;5.47;;
10269;SDS011;5180;50.832;5.390;2022-09-09T07:20:41;10.07;;;9.15;;
10269;SDS011;5180;50.832;5.390;2022-09-09T07:23:07;7.88;;;7.00;;
10269;SDS011;5180;50.832;5.390;2022-09-09T07:25:33;6.53;;;5.70;;
10269;SDS011;5180;50.832;5.390;2022-09-09T07:27:58;5.05;;;4.60;;
10269;SDS011;5180;50.832;5.390;2022-09-09T07:30:24;15.02;;;14.13;;
10269;SDS011;5180;50.832;5.390;2022-09-09T07:32:50;5.43;;;5.03;;
10269;SDS011;5180;50.832;5.390;2022-09-09T07:35:17;7.60;;;4.97;;
10269;SDS011;5180;50.832;5.390;2022-09-09T07:37:42;6.20;;;5.15;;
10269;SDS011;5180;50.832;5.390;2022-09-09T07:40:10;7.55;;;6.95;;
10269;SDS011;5180;50.832;5.390;2022-09-09T07:42:35;6.53;;;5.93;;
10269;SDS011;5180;50.832;5.390;2022-09-09T07:45:02;6.47;;;6.00;;
10269;SDS011;5180;50.832;5.390;2022-09-09T07:47:28;7.70;;;7.18;;
10269;SDS011;5180;50.832;5.390;2022-09-09T07:49:54;7.50;;;6.88;;
10269;SDS011;5180;50.832;5.390;2022-09-09T07:52:20;6.20;;;5.63;;
10269;SDS011;5180;50.832;5.390;2022-09-09T07:54:46;7.55;;;5.53;;
10269;SDS011;5180;50.832;5.390;2022-09-09T07:57:12;7.90;;;7.28;;
10269;SDS011;5180;50.832;5.390;2022-09-09T07:59:37;14.57;;;13.68;;
10269;SDS011;5180;50.832;5.390;2022-09-09T08:02:03;8.55;;;8.05;;
10269;SDS011;5180;50.832;5.390;2022-09-09T08:04:29;3.72;;;3.45;;
10269;SDS011;5180;50.832;5.390;2022-09-09T08:06:56;4.97;;;3.78;;
10269;SDS011;5180;50.832;5.390;2022-09-09T08:09:23;4.72;;;3.67;;
10269;SDS011;5180;50.832;5.390;2022-09-09T08:11:54;3.65;;;3.33;;
10269;SDS011;5180;50.832;5.390;2022-09-09T08:14:21;5.32;;;3.50;;
10269;SDS011;5180;50.832;5.390;2022-09-09T08:16:48;5.00;;;3.45;;
10269;SDS011;5180;50.832;5.390;2022-09-09T08:19:15;5.32;;;3.75;;
10269;SDS011;5180;50.832;5.390;2022-09-09T08:21:41;6.35;;;3.67;;
10269;SDS011;5180;50.832;5.390;2022-09-09T08:24:08;3.58;;;3.28;;
10269;SDS011;5180;50.832;5.390;2022-09-09T08:26:37;3.72;;;3.42;;
10269;SDS011;5180;50.832;5.390;2022-09-09T08:29:06;5.30;;;3.33;;
10269;SDS011;5180;50.832;5.390;2022-09-09T08:31:36;4.05;;;3.67;;
10269;SDS011;5180;50.832;5.390;2022-09-09T08:34:04;6.82;;;4.30;;
10269;SDS011;5180;50.832;5.390;2022-09-09T08:36:33;4.15;;;3.75;;
10269;SDS011;5180;50.832;5.390;2022-09-09T08:39:01;3.88;;;3.58;;
10269;SDS011;5180;50.832;5.390;2022-09-09T08:41:30;3.90;;;3.50;;
10269;SDS011;5180;50.832;5.390;2022-09-09T08:46:54;7.05;;;3.22;;
10269;SDS011;5180;50.832;5.390;2022-09-09T08:49:45;4.28;;;3.05;;
10269;SDS011;5180;50.832;5.390;2022-09-09T08:52:31;5.20;;;3.20;;
10269;SDS011;5180;50.832;5.390;2022-09-09T08:55:26;4.93;;;3.20;;
10269;SDS011;5180;50.832;5.390;2022-09-09T08:58:18;4.85;;;3.80;;
10269;SDS011;5180;50.832;5.390;2022-09-09T09:00:55;4.03;;;3.63;;
10269;SDS011;5180;50.832;5.390;2022-09-09T09:03:38;7.85;;;3.75;;
10269;SDS011;5180;50.832;5.390;2022-09-09T09:09:07;5.05;;;3.28;;
10269;SDS011;5180;50.832;5.390;2022-09-09T09:11:48;5.32;;;4.93;;
10269;SDS011;5180;50.832;5.390;2022-09-09T09:14:20;3.65;;;2.80;;
10269;SDS011;5180;50.832;5.390;2022-09-09T09:16:56;2.80;;;2.60;;
10269;SDS011;5180;50.832;5.390;2022-09-09T09:19:22;7.07;;;6.15;;
10269;SDS011;5180;50.832;5.390;2022-09-09T09:21:58;13.32;;;12.38;;
10269;SDS011;5180;50.832;5.390;2022-09-09T09:24:39;15.63;;;14.40;;
10269;SDS011;5180;50.832;5.390;2022-09-09T09:27:15;25.50;;;23.90;;
10269;SDS011;5180;50.832;5.390;2022-09-09T09:29:45;23.73;;;22.38;;
10269;SDS011;5180;50.832;5.390;2022-09-09T09:32:13;28.90;;;27.27;;
10269;SDS011;5180;50.832;5.390;2022-09-09T09:34:47;20.67;;;19.63;;
10269;SDS011;5180;50.832;5.390;2022-09-09T09:37:17;31.52;;;29.83;;
10269;SDS011;5180;50.832;5.390;2022-09-09T09:39:48;23.50;;;22.10;;
10269;SDS011;5180;50.832;5.390;2022-09-09T09:42:16;10.65;;;9.95;;
10269;SDS011;5180;50.832;5.390;2022-09-09T09:44:42;10.77;;;9.98;;
10269;SDS011;5180;50.832;5.390;2022-09-09T09:49:39;35.95;;;33.70;;
10269;SDS011;5180;50.832;5.390;2022-09-09T09:52:28;19.13;;;17.92;;
10269;SDS011;5180;50.832;5.390;2022-09-09T09:54:55;10.32;;;9.52;;
10269;SDS011;5180;50.832;5.390;2022-09-09T09:57:28;11.38;;;10.68;;
10269;SDS011;5180;50.832;5.390;2022-09-09T10:02:43;9.15;;;8.65;;
10269;SDS011;5180;50.832;5.390;2022-09-09T10:05:17;13.85;;;12.95;;
10269;SDS011;5180;50.832;5.390;2022-09-09T10:08:00;11.95;;;11.25;;
10269;SDS011;5180;50.832;5.390;2022-09-09T10:13:29;2.00;;;1.38;;
10269;SDS011;5180;50.832;5.390;2022-09-09T10:16:23;2.40;;;1.70;;
10269;SDS011;5180;50.832;5.390;2022-09-09T10:19:30;2.53;;;2.33;;
10269;SDS011;5180;50.832;5.390;2022-09-09T10:22:14;3.53;;;3.03;;
10269;SDS011;5180;50.832;5.390;2022-09-09T10:27:38;1.83;;;1.35;;
10269;SDS011;5180;50.832;5.390;2022-09-09T10:30:17;1.73;;;1.63;;
10269;SDS011;5180;50.832;5.390;2022-09-09T10:38:40;30.20;;;28.58;;
10269;SDS011;5180;50.832;5.390;2022-09-09T10:41:15;12.45;;;11.65;;
10269;SDS011;5180;50.832;5.390;2022-09-09T10:57:45;46.22;;;43.55;;
10269;SDS011;5180;50.832;5.390;2022-09-09T11:00:18;49.17;;;46.47;;
10269;SDS011;5180;50.832;5.390;2022-09-09T11:03:03;37.10;;;34.95;;
10269;SDS011;5180;50.832;5.390;2022-09-09T11:05:36;57.35;;;54.20;;
10269;SDS011;5180;50.832;5.390;2022-09-09T11:08:10;71.88;;;67.85;;
10269;SDS011;5180;50.832;5.390;2022-09-09T11:13:34;57.40;;;54.08;;
10269;SDS011;5180;50.832;5.390;2022-09-09T11:19:04;21.55;;;20.27;;
10269;SDS011;5180;50.832;5.390;2022-09-09T11:21:49;12.88;;;11.93;;
10269;SDS011;5180;50.832;5.390;2022-09-09T11:27:14;11.77;;;10.85;;
10269;SDS011;5180;50.832;5.390;2022-09-09T11:29:52;13.93;;;12.93;;
10269;SDS011;5180;50.832;5.390;2022-09-09T11:41:10;13.20;;;12.50;;
10269;SDS011;5180;50.832;5.390;2022-09-09T11:43:48;14.73;;;13.82;;
10269;SDS011;5180;50.832;5.390;2022-09-09T11:46:19;11.77;;;11.15;;
10269;SDS011;5180;50.832;5.390;2022-09-09T11:49:00;13.75;;;12.68;;
10269;SDS011;5180;50.832;5.390;2022-09-09T11:51:27;11.95;;;11.10;;
10269;SDS011;5180;50.832;5.390;2022-09-09T11:53:59;11.27;;;10.60;;
10269;SDS011;5180;50.832;5.390;2022-09-09T12:02:12;5.75;;;4.13;;
10269;SDS011;5180;50.832;5.390;2022-09-09T12:04:59;18.20;;;16.88;;
10269;SDS011;5180;50.832;5.390;2022-09-09T12:07:35;10.70;;;10.00;;
10269;SDS011;5180;50.832;5.390;2022-09-09T12:12:55;16.67;;;15.60;;
10269;SDS011;5180;50.832;5.390;2022-09-09T12:15:32;14.75;;;13.90;;
10269;SDS011;5180;50.832;5.390;2022-09-09T12:17:58;5.50;;;5.07;;
10269;SDS011;5180;50.832;5.390;2022-09-09T12:25:56;5.43;;;4.95;;
10269;SDS011;5180;50.832;5.390;2022-09-09T12:28:51;3.90;;;3.72;;
10269;SDS011;5180;50.832;5.390;2022-09-09T12:33:55;16.98;;;15.95;;
10269;SDS011;5180;50.832;5.390;2022-09-09T12:36:34;41.63;;;39.33;;
10269;SDS011;5180;50.832;5.390;2022-09-09T12:39:09;48.92;;;46.28;;
10269;SDS011;5180;50.832;5.390;2022-09-09T12:41:50;50.08;;;47.45;;
10269;SDS011;5180;50.832;5.390;2022-09-09T12:44:22;58.70;;;55.35;;
10269;SDS011;5180;50.832;5.390;2022-09-09T12:46:49;65.65;;;61.88;;
10269;SDS011;5180;50.832;5.390;2022-09-09T12:51:56;37.15;;;35.10;;
10269;SDS011;5180;50.832;5.390;2022-09-09T12:54:22;13.15;;;12.25;;
10269;SDS011;5180;50.832;5.390;2022-09-09T12:56:48;20.60;;;19.38;;
10269;SDS011;5180;50.832;5.390;2022-09-09T12:59:21;33.00;;;31.10;;
10269;SDS011;5180;50.832;5.390;2022-09-09T13:01:56;14.52;;;13.43;;
10269;SDS011;5180;50.832;5.390;2022-09-09T13:04:23;15.40;;;14.55;;
10269;SDS011;5180;50.832;5.390;2022-09-09T13:06:48;16.85;;;15.85;;
10269;SDS011;5180;50.832;5.390;2022-09-09T13:09:14;10.90;;;10.20;;
10269;SDS011;5180;50.832;5.390;2022-09-09T13:11:44;9.02;;;8.40;;
10269;SDS011;5180;50.832;5.390;2022-09-09T13:14:18;10.65;;;10.05;;
10269;SDS011;5180;50.832;5.390;2022-09-09T13:16:54;11.93;;;10.95;;
10269;SDS011;5180;50.832;5.390;2022-09-09T13:19:21;15.18;;;14.23;;
10269;SDS011;5180;50.832;5.390;2022-09-09T13:21:47;19.58;;;18.42;;
10269;SDS011;5180;50.832;5.390;2022-09-09T13:24:46;16.77;;;15.75;;
10269;SDS011;5180;50.832;5.390;2022-09-09T13:27:18;10.60;;;9.90;;
10269;SDS011;5180;50.832;5.390;2022-09-09T13:29:52;28.60;;;27.02;;
10269;SDS011;5180;50.832;5.390;2022-09-09T13:32:19;21.20;;;19.77;;
10269;SDS011;5180;50.832;5.390;2022-09-09T13:34:59;20.85;;;19.52;;
10269;SDS011;5180;50.832;5.390;2022-09-09T13:37:33;15.07;;;14.15;;
10269;SDS011;5180;50.832;5.390;2022-09-09T13:40:02;11.70;;;11.00;;
10269;SDS011;5180;50.832;5.390;2022-09-09T13:42:32;8.90;;;8.30;;
10269;SDS011;5180;50.832;5.390;2022-09-09T13:45:01;9.48;;;8.77;;
10269;SDS011;5180;50.832;5.390;2022-09-09T13:47:31;8.25;;;7.68;;
10269;SDS011;5180;50.832;5.390;2022-09-09T13:50:09;9.65;;;8.95;;
10269;SDS011;5180;50.832;5.390;2022-09-09T13:52:58;11.57;;;10.82;;
10269;SDS011;5180;50.832;5.390;2022-09-09T13:55:25;7.43;;;6.93;;
10269;SDS011;5180;50.832;5.390;2022-09-09T13:57:59;10.23;;;9.63;;
10269;SDS011;5180;50.832;5.390;2022-09-09T14:00:28;9.02;;;8.52;;
10269;SDS011;5180;50.832;5.390;2022-09-09T14:02:56;5.65;;;5.18;;
10269;SDS011;5180;50.832;5.390;2022-09-09T14:05:22;6.65;;;6.05;;
10269;SDS011;5180;50.832;5.390;2022-09-09T14:07:48;5.95;;;5.40;;
10269;SDS011;5180;50.832;5.390;2022-09-09T14:10:14;8.75;;;8.15;;
10269;SDS011;5180;50.832;5.390;2022-09-09T14:12:40;4.45;;;3.92;;
10269;SDS011;5180;50.832;5.390;2022-09-09T14:15:06;2.65;;;1.67;;
10269;SDS011;5180;50.832;5.390;2022-09-09T14:17:35;1.83;;;1.55;;
10269;SDS011;5180;50.832;5.390;2022-09-09T14:20:01;3.97;;;1.60;;
10269;SDS011;5180;50.832;5.390;2022-09-09T14:22:34;1.85;;;1.40;;
10269;SDS011;5180;50.832;5.390;2022-09-09T14:25:01;1.27;;;1.08;;
10269;SDS011;5180;50.832;5.390;2022-09-09T14:27:27;3.00;;;1.73;;
10269;SDS011;5180;50.832;5.390;2022-09-09T14:29:53;1.90;;;1.75;;
10269;SDS011;5180;50.832;5.390;2022-09-09T14:32:19;2.25;;;1.48;;
10269;SDS011;5180;50.832;5.390;2022-09-09T14:34:46;2.42;;;1.48;;
10269;SDS011;5180;50.832;5.390;2022-09-09T14:37:15;2.58;;;1.70;;
10269;SDS011;5180;50.832;5.390;2022-09-09T14:39:41;2.38;;;2.13;;
10269;SDS011;5180;50.832;5.390;2022-09-09T14:42:09;2.50;;;1.85;;
10269;SDS011;5180;50.832;5.390;2022-09-09T14:44:37;1.67;;;1.58;;
10269;SDS011;5180;50.832;5.390;2022-09-09T14:47:04;2.35;;;1.42;;
10269;SDS011;5180;50.832;5.390;2022-09-09T14:49:30;1.50;;;1.20;;
10269;SDS011;5180;50.832;5.390;2022-09-09T14:51:56;1.50;;;1.40;;
10269;SDS011;5180;50.832;5.390;2022-09-09T14:54:22;2.50;;;1.95;;
10269;SDS011;5180;50.832;5.390;2022-09-09T14:56:48;2.15;;;1.98;;
10269;SDS011;5180;50.832;5.390;2022-09-09T14:59:13;2.13;;;1.63;;
10269;SDS011;5180;50.832;5.390;2022-09-09T15:01:39;2.45;;;1.73;;
10269;SDS011;5180;50.832;5.390;2022-09-09T15:04:05;2.88;;;2.67;;
10269;SDS011;5180;50.832;5.390;2022-09-09T15:06:32;2.45;;;1.30;;
10269;SDS011;5180;50.832;5.390;2022-09-09T15:08:59;2.35;;;1.75;;
10269;SDS011;5180;50.832;5.390;2022-09-09T15:11:26;2.53;;;1.45;;
10269;SDS011;5180;50.832;5.390;2022-09-09T15:13:53;2.63;;;2.42;;
10269;SDS011;5180;50.832;5.390;2022-09-09T15:16:19;4.78;;;4.38;;
10269;SDS011;5180;50.832;5.390;2022-09-09T15:18:46;4.68;;;4.30;;
10269;SDS011;5180;50.832;5.390;2022-09-09T15:21:16;3.63;;;3.35;;
10269;SDS011;5180;50.832;5.390;2022-09-09T15:23:44;5.03;;;3.75;;
10269;SDS011;5180;50.832;5.390;2022-09-09T15:26:10;2.67;;;2.15;;
10269;SDS011;5180;50.832;5.390;2022-09-09T15:28:39;3.88;;;3.58;;
10269;SDS011;5180;50.832;5.390;2022-09-09T15:31:15;2.40;;;2.22;;
10269;SDS011;5180;50.832;5.390;2022-09-09T15:33:51;4.78;;;4.00;;
10269;SDS011;5180;50.832;5.390;2022-09-09T15:36:20;2.85;;;2.47;;
10269;SDS011;5180;50.832;5.390;2022-09-09T15:38:47;3.03;;;2.83;;
10269;SDS011;5180;50.832;5.390;2022-09-09T15:41:13;6.18;;;5.55;;
10269;SDS011;5180;50.832;5.390;2022-09-09T15:43:43;6.22;;;5.72;;
10269;SDS011;5180;50.832;5.390;2022-09-09T15:46:32;6.82;;;6.32;;
10269;SDS011;5180;50.832;5.390;2022-09-09T15:48:58;3.30;;;3.00;;
10269;SDS011;5180;50.832;5.390;2022-09-09T15:51:29;4.00;;;3.70;;
10269;SDS011;5180;50.832;5.390;2022-09-09T15:53:56;3.17;;;2.72;;
10269;SDS011;5180;50.832;5.390;2022-09-09T15:56:23;3.90;;;3.60;;
10269;SDS011;5180;50.832;5.390;2022-09-09T15:58:49;4.75;;;4.28;;
10269;SDS011;5180;50.832;5.390;2022-09-09T16:01:17;4.28;;;3.97;;
10269;SDS011;5180;50.832;5.390;2022-09-09T16:03:44;4.63;;;4.43;;
10269;SDS011;5180;50.832;5.390;2022-09-09T16:06:11;3.80;;;3.50;;
10269;SDS011;5180;50.832;5.390;2022-09-09T16:08:40;3.10;;;2.70;;
10269;SDS011;5180;50.832;5.390;2022-09-09T16:11:14;1.80;;;1.65;;
10269;SDS011;5180;50.832;5.390;2022-09-09T16:13:41;2.97;;;2.65;;
10269;SDS011;5180;50.832;5.390;2022-09-09T16:16:12;5.50;;;5.00;;
10269;SDS011;5180;50.832;5.390;2022-09-09T16:18:39;4.95;;;3.72;;
10269;SDS011;5180;50.832;5.390;2022-09-09T16:21:13;6.90;;;6.18;;
10269;SDS011;5180;50.832;5.390;2022-09-09T16:23:47;9.98;;;9.32;;
10269;SDS011;5180;50.832;5.390;2022-09-09T16:26:15;10.45;;;9.75;;
10269;SDS011;5180;50.832;5.390;2022-09-09T16:28:41;21.80;;;20.65;;
10269;SDS011;5180;50.832;5.390;2022-09-09T16:31:09;20.83;;;19.60;;
10269;SDS011;5180;50.832;5.390;2022-09-09T16:33:38;41.17;;;38.83;;
10269;SDS011;5180;50.832;5.390;2022-09-09T16:36:06;15.65;;;14.75;;
10269;SDS011;5180;50.832;5.390;2022-09-09T16:38:33;26.40;;;24.95;;
10269;SDS011;5180;50.832;5.390;2022-09-09T16:41:00;37.20;;;35.08;;
10269;SDS011;5180;50.832;5.390;2022-09-09T16:43:27;33.00;;;31.25;;
10269;SDS011;5180;50.832;5.390;2022-09-09T16:45:52;30.70;;;28.90;;
10269;SDS011;5180;50.832;5.390;2022-09-09T16:48:18;37.42;;;35.35;;
10269;SDS011;5180;50.832;5.390;2022-09-09T16:50:45;28.77;;;27.15;;
10269;SDS011;5180;50.832;5.390;2022-09-09T16:53:11;24.23;;;22.92;;
10269;SDS011;5180;50.832;5.390;2022-09-09T16:55:41;26.27;;;24.80;;
10269;SDS011;5180;50.832;5.390;2022-09-09T16:58:07;27.15;;;25.65;;
10269;SDS011;5180;50.832;5.390;2022-09-09T17:00:35;37.63;;;35.53;;
10269;SDS011;5180;50.832;5.390;2022-09-09T17:03:01;51.47;;;48.45;;
10269;SDS011;5180;50.832;5.390;2022-09-09T17:05:27;34.92;;;32.92;;
10269;SDS011;5180;50.832;5.390;2022-09-09T17:07:54;39.10;;;37.00;;